This is the latest recevied weather packets stored in our database for station/object KK4MOR. If no packets are shown the sender has not sent any weather packets the latest 10 day(s).
| Time | Temp. | Humidity | Pressure | Rain* | Wind** | Luminosity | Snow |
|---|---|---|---|---|---|---|---|
| 1777538729 | 12.22° C | 83% | 1011.3 hPa | 0 mm | - | - | - |
| 1777537827 | 12.22° C | 83% | 1011.5 hPa | 0 mm | - | - | - |
| 1777536924 | 12.78° C | 83% | 1011.7 hPa | 0 mm | - | - | - |
| 1777536033 | 12.78° C | 82% | 1011.6 hPa | 0 mm | - | - | - |
| 1777535123 | 12.78° C | 82% | 1011.4 hPa | 0 mm | - | - | - |
| 1777534224 | 12.78° C | 82% | 1011.1 hPa | 0 mm | - | - | - |
| 1777533320 | 12.78° C | 83% | 1010.9 hPa | 0 mm | - | - | - |
| 1777532419 | 13.33° C | 83% | 1010.6 hPa | 0 mm | - | - | - |
| 1777531517 | 13.33° C | 83% | 1010.8 hPa | 0 mm | - | - | - |
| 1777530616 | 13.33° C | 83% | 1010.8 hPa | 0 mm | - | - | - |
| 1777529715 | 13.89° C | 83% | 1010.9 hPa | 0 mm | - | - | - |
| 1777528816 | 13.89° C | 83% | 1011.3 hPa | 0 mm | - | - | - |
| 1777527910 | 13.89° C | 83% | 1011.2 hPa | 0 mm | - | - | - |
| 1777527007 | 14.44° C | 84% | 1011.6 hPa | 0 mm | - | - | - |
| 1777526107 | 14.44° C | 84% | 1011.5 hPa | 0 mm | - | - | - |
| 1777525203 | 14.44° C | 84% | 1011.2 hPa | 0 mm | - | - | - |
| 1777524361 | 14.44° C | 83% | 1011.3 hPa | 0 mm | - | - | - |
| 1777523467 | 15° C | 83% | 1011.2 hPa | 0 mm | - | - | - |
| 1777522550 | 15° C | 83% | 1011.7 hPa | 0 mm | - | - | - |
| 1777521661 | 15° C | 85% | 1011.8 hPa | 0 mm | - | - | - |
| 1777520741 | 13.89° C | 90% | 1012.1 hPa | 0 mm | - | - | - |
| 1777519837 | 13.33° C | 96% | 1011.7 hPa | 0 mm | - | - | - |
| 1777518932 | 13.33° C | 95% | 1011.7 hPa | 0 mm | - | - | - |
| 1777518029 | 13.33° C | 95% | 1011.7 hPa | 0 mm | - | - | - |
| 1777517123 | 13.33° C | 94% | 1011.5 hPa | 0 mm | - | - | - |
* Rain latest hour (hover to see other rain measurements)
** Current wind speed in m/s (hover to see current wind gust speed)